createdAt,value
2024-02-11T00:01:19.646Z,9.41
2024-02-11T00:06:41.614Z,9.36
2024-02-11T00:12:06.400Z,9.32
2024-02-11T00:17:28.331Z,9.24
2024-02-11T00:22:50.526Z,9.20
2024-02-11T00:28:14.452Z,9.19
2024-02-11T00:33:36.342Z,9.13
2024-02-11T00:38:58.219Z,9.14
2024-02-11T00:44:20.370Z,9.10
2024-02-11T00:49:42.158Z,8.99
2024-02-11T00:55:04.106Z,8.96
2024-02-11T01:00:25.935Z,8.94
2024-02-11T01:05:47.804Z,8.90
2024-02-11T01:11:09.906Z,8.98
2024-02-11T01:16:31.830Z,8.88
2024-02-11T01:21:55.473Z,8.87
2024-02-11T01:27:17.334Z,8.85
2024-02-11T01:32:40.125Z,8.81
2024-02-11T01:38:02.145Z,8.77
2024-02-11T01:43:24.475Z,8.69
2024-02-11T01:48:46.572Z,8.71
2024-02-11T01:54:08.318Z,8.67
2024-02-11T01:59:33.715Z,8.64
2024-02-11T02:04:56.092Z,8.64
2024-02-11T02:10:17.970Z,8.61
2024-02-11T02:15:39.823Z,8.66
2024-02-11T02:21:08.045Z,8.62
2024-02-11T02:26:29.803Z,8.61
2024-02-11T02:31:51.594Z,8.62
2024-02-11T02:37:13.732Z,8.64
2024-02-11T02:42:35.501Z,8.62
2024-02-11T02:47:57.327Z,8.61
2024-02-11T02:53:19.053Z,8.60
2024-02-11T02:58:42.410Z,8.58
2024-02-11T03:04:04.622Z,8.55
2024-02-11T03:09:26.401Z,8.56
2024-02-11T03:14:50.470Z,8.50
2024-02-11T03:20:15.924Z,8.49
2024-02-11T03:25:37.999Z,8.46
2024-02-11T03:31:00.558Z,8.46
2024-02-11T03:36:22.205Z,8.43
2024-02-11T03:41:43.927Z,8.43
2024-02-11T03:47:05.823Z,8.39
2024-02-11T03:52:27.559Z,8.40
2024-02-11T03:57:49.274Z,8.34
2024-02-11T04:03:12.384Z,8.32
2024-02-11T04:08:36.068Z,8.33
2024-02-11T04:13:57.887Z,8.31
2024-02-11T04:19:22.116Z,8.29
2024-02-11T04:24:47.158Z,8.32
2024-02-11T04:30:13.980Z,8.30
2024-02-11T04:35:37.055Z,8.24
2024-02-11T04:41:01.917Z,8.21
2024-02-11T04:46:24.189Z,8.22
2024-02-11T04:51:45.762Z,8.23
2024-02-11T04:57:08.060Z,8.22
2024-02-11T05:02:29.774Z,8.23
2024-02-11T05:07:51.541Z,8.22
2024-02-11T05:13:14.952Z,8.18
2024-02-11T05:18:40.282Z,8.14
2024-02-11T05:24:02.518Z,8.15
2024-02-11T05:29:25.378Z,8.13
2024-02-11T05:34:47.154Z,8.08
2024-02-11T05:40:10.806Z,8.03
2024-02-11T05:45:33.821Z,8.02
2024-02-11T05:50:55.606Z,8.00
2024-02-11T05:56:17.213Z,7.99
2024-02-11T06:01:39.038Z,8.03
2024-02-11T06:07:01.022Z,8.00
2024-02-11T06:12:22.789Z,7.98
2024-02-11T06:17:44.598Z,7.97
2024-02-11T06:23:09.569Z,8.00
2024-02-11T06:28:31.441Z,7.97
2024-02-11T06:33:54.851Z,7.95
2024-02-11T06:39:16.701Z,7.93
2024-02-11T06:44:42.655Z,7.96
2024-02-11T06:50:05.874Z,7.97
2024-02-11T06:55:27.680Z,8.00
2024-02-11T07:00:49.496Z,8.00
2024-02-11T07:06:12.403Z,8.00
2024-02-11T07:11:35.054Z,7.98
2024-02-11T07:16:58.041Z,7.95
2024-02-11T07:22:20.181Z,7.99
2024-02-11T07:27:41.913Z,8.02
2024-02-11T07:33:04.020Z,7.99
2024-02-11T07:38:27.524Z,8.00
2024-02-11T07:43:50.993Z,8.01
2024-02-11T07:49:14.443Z,7.96
2024-02-11T07:54:36.200Z,7.99
2024-02-11T07:59:59.553Z,8.02
2024-02-11T08:05:23.905Z,8.03
2024-02-11T08:10:46.939Z,8.03
2024-02-11T08:16:12.265Z,8.05
2024-02-11T08:21:34.048Z,8.07
2024-02-11T08:26:55.821Z,8.05
2024-02-11T08:32:17.489Z,8.06
2024-02-11T08:37:39.902Z,8.03
2024-02-11T08:43:02.763Z,8.05
2024-02-11T08:48:24.485Z,8.09
2024-02-11T08:53:46.288Z,8.13
2024-02-11T08:59:08.080Z,8.15
2024-02-11T09:04:30.023Z,8.19
2024-02-11T09:09:51.768Z,8.23
2024-02-11T09:15:18.203Z,8.28
2024-02-11T09:20:40.984Z,8.32
2024-02-11T09:26:04.034Z,8.33
2024-02-11T09:31:26.513Z,8.37
2024-02-11T09:36:48.421Z,8.39
2024-02-11T09:42:21.141Z,8.42
2024-02-11T09:47:46.882Z,8.46
2024-02-11T09:53:12.690Z,8.46
2024-02-11T09:58:35.928Z,8.46
2024-02-11T10:04:01.148Z,8.48
2024-02-11T10:09:23.439Z,8.49
2024-02-11T10:14:56.216Z,8.49
2024-02-11T10:20:18.958Z,8.56
2024-02-11T10:25:41.161Z,8.60
2024-02-11T10:31:03.092Z,8.65
2024-02-11T10:36:25.930Z,8.65
2024-02-11T10:41:47.683Z,8.69
2024-02-11T10:47:10.238Z,8.70
2024-02-11T10:52:38.046Z,8.72
2024-02-11T10:58:03.109Z,8.78
2024-02-11T11:03:29.641Z,8.81
2024-02-11T11:08:52.371Z,8.84
2024-02-11T11:14:14.239Z,8.84
2024-02-11T11:19:37.056Z,8.80
2024-02-11T11:24:59.271Z,8.83
2024-02-11T11:30:21.335Z,8.87
2024-02-11T11:35:43.181Z,8.85
2024-02-11T11:41:07.998Z,8.86
2024-02-11T11:46:33.397Z,8.89
2024-02-11T11:51:59.897Z,8.93
2024-02-11T11:57:22.426Z,8.98
2024-02-11T12:02:44.173Z,8.99
2024-02-11T12:08:06.528Z,8.99
2024-02-11T12:13:32.672Z,9.01
2024-02-11T12:18:54.507Z,9.07
2024-02-11T12:24:16.862Z,9.10
2024-02-11T12:29:39.658Z,9.10
2024-02-11T12:35:02.359Z,9.08
2024-02-11T12:40:24.742Z,9.11
2024-02-11T12:45:46.557Z,9.08
2024-02-11T12:51:12.965Z,9.12
2024-02-11T12:56:34.823Z,9.13
2024-02-11T13:01:57.557Z,9.12
2024-02-11T13:07:19.142Z,9.14
2024-02-11T13:12:41.123Z,9.20
2024-02-11T13:18:03.039Z,9.20
2024-02-11T13:23:25.343Z,9.23
2024-02-11T13:28:47.603Z,9.24
2024-02-11T13:34:09.610Z,9.23
2024-02-11T13:39:33.862Z,9.24
2024-02-11T13:44:55.927Z,9.27
2024-02-11T13:50:17.562Z,9.25
2024-02-11T13:55:40.737Z,9.27
2024-02-11T14:01:02.559Z,9.22
2024-02-11T14:06:24.235Z,9.28
2024-02-11T14:11:45.968Z,9.22
2024-02-11T14:17:07.961Z,9.26
2024-02-11T14:22:29.683Z,9.32
2024-02-11T14:27:52.564Z,9.31
2024-02-11T14:33:14.188Z,9.34
2024-02-11T14:38:41.301Z,9.33
2024-02-11T14:44:03.994Z,9.35
2024-02-11T14:49:26.222Z,9.39
2024-02-11T14:54:48.350Z,9.42
2024-02-11T15:00:12.429Z,9.42
2024-02-11T15:05:34.276Z,9.46
2024-02-11T15:10:56.936Z,9.48
2024-02-11T15:16:18.916Z,9.51
2024-02-11T15:21:40.842Z,9.48
2024-02-11T15:27:02.739Z,9.39
2024-02-11T15:32:28.264Z,9.39
2024-02-11T15:37:52.357Z,9.36
2024-02-11T15:43:15.191Z,9.34
2024-02-11T15:48:37.214Z,9.37
2024-02-11T15:53:59.224Z,9.33
2024-02-11T15:59:20.970Z,9.34
2024-02-11T16:04:44.244Z,9.34
2024-02-11T16:10:11.882Z,9.38
2024-02-11T16:15:34.407Z,9.37
2024-02-11T16:20:58.782Z,9.42
2024-02-11T16:26:21.631Z,9.45
2024-02-11T16:31:43.885Z,9.42
2024-02-11T16:37:05.622Z,9.40
2024-02-11T16:42:27.222Z,9.44
2024-02-11T16:47:49.695Z,9.43
2024-02-11T16:53:11.585Z,9.43
2024-02-11T16:58:34.384Z,9.42
2024-02-11T17:04:01.261Z,9.40
2024-02-11T17:09:23.075Z,9.36
2024-02-11T17:14:46.251Z,9.35
2024-02-11T17:20:09.268Z,9.34
2024-02-11T17:25:31.287Z,9.33
2024-02-11T17:30:55.955Z,9.34
2024-02-11T17:36:18.178Z,9.31
2024-02-11T17:41:50.475Z,9.32
2024-02-11T17:47:12.217Z,9.32
2024-02-11T17:52:37.297Z,9.29
2024-02-11T17:58:00.451Z,9.31
2024-02-11T18:03:23.608Z,9.27
2024-02-11T18:08:45.302Z,9.26
2024-02-11T18:14:09.289Z,9.29
2024-02-11T18:19:32.608Z,9.27
2024-02-11T18:24:55.402Z,9.26
2024-02-11T18:30:17.007Z,9.22
2024-02-11T18:35:39.019Z,9.22
2024-02-11T18:41:01.891Z,9.23
2024-02-11T18:46:23.859Z,9.23
2024-02-11T18:51:45.595Z,9.22
2024-02-11T18:57:14.402Z,9.21
2024-02-11T19:02:36.244Z,9.24
2024-02-11T19:07:58.066Z,9.21
2024-02-11T19:13:20.308Z,9.22
2024-02-11T19:18:42.134Z,9.24
2024-02-11T19:24:04.024Z,9.24
2024-02-11T19:29:26.912Z,9.24
2024-02-11T19:34:49.506Z,9.26
2024-02-11T19:40:14.486Z,9.26
2024-02-11T19:45:38.006Z,9.26
2024-02-11T19:51:00.293Z,9.26
2024-02-11T19:56:22.287Z,9.27
2024-02-11T20:01:47.773Z,9.25
2024-02-11T20:07:09.602Z,9.26
2024-02-11T20:12:31.360Z,9.27
2024-02-11T20:17:54.304Z,9.26
2024-02-11T20:23:17.420Z,9.29
2024-02-11T20:28:40.233Z,9.18
2024-02-11T20:34:02.099Z,9.18
2024-02-11T20:39:24.031Z,9.16
2024-02-11T20:44:46.507Z,9.13
2024-02-11T20:50:09.910Z,9.19
2024-02-11T20:55:31.633Z,9.18
2024-02-11T21:00:53.457Z,9.18
2024-02-11T21:06:16.177Z,9.19
2024-02-11T21:11:38.765Z,9.21
2024-02-11T21:17:00.596Z,9.22
2024-02-11T21:22:23.853Z,9.17
2024-02-11T21:27:53.268Z,9.19
2024-02-11T21:33:21.248Z,9.20
2024-02-11T21:38:44.377Z,9.19
2024-02-11T21:44:09.807Z,9.18
2024-02-11T21:49:32.577Z,9.20
2024-02-11T21:54:54.289Z,9.18
2024-02-11T22:00:16.413Z,9.21
2024-02-11T22:05:38.570Z,9.18
2024-02-11T22:11:00.624Z,9.18
2024-02-11T22:16:22.242Z,9.18
2024-02-11T22:21:44.986Z,9.24
2024-02-11T22:27:07.353Z,9.26
2024-02-11T22:32:29.338Z,9.29
2024-02-11T22:37:51.502Z,9.30
2024-02-11T22:43:13.407Z,9.23
2024-02-11T22:48:35.649Z,9.21
2024-02-11T22:53:57.438Z,9.18
2024-02-11T22:59:19.055Z,9.17
2024-02-11T23:04:41.197Z,9.18
2024-02-11T23:10:02.950Z,9.22
2024-02-11T23:15:24.635Z,9.24
2024-02-11T23:20:46.362Z,9.23
2024-02-11T23:26:08.470Z,9.22
2024-02-11T23:31:30.491Z,9.22
2024-02-11T23:36:52.291Z,9.21
2024-02-11T23:42:14.165Z,9.24
2024-02-11T23:47:37.200Z,9.25
2024-02-11T23:52:59.142Z,9.28
2024-02-11T23:58:21.142Z,9.31
